Time;durP1;ratioP1;P1;durP2;ratioP2;P2;SDS_P1;SDS_P2;PMS_P1;PMS_P2;Temp;Humidity;BMP_temperature;BMP_pressure;BME280_temperature;BME280_humidity;BME280_pressure;Samples;Min_cycle;Max_cycle;Signal;HPM_P1;HPM_P2
2023/01/10 00:00:37;;;;;;;1.90;1.70;;;6.00;99.90;;;;;;5027947;28;20189;-87
2023/01/10 00:03:04;;;;;;;1.93;1.77;;;6.00;99.90;;;;;;5031532;28;20233;-87
2023/01/10 00:05:30;;;;;;;1.87;1.77;;;6.00;99.90;;;;;;5034235;28;20312;-86
2023/01/10 00:07:57;;;;;;;3.00;1.83;;;6.10;99.90;;;;;;5044980;28;20741;-88
2023/01/10 00:10:23;;;;;;;2.23;1.80;;;6.10;99.90;;;;;;5033391;28;20247;-89
2023/01/10 00:15:35;;;;;;;2.07;1.60;;;6.20;99.90;;;;;;5032764;28;20199;-90
2023/01/10 00:18:01;;;;;;;1.83;1.70;;;6.20;99.90;;;;;;5035661;28;20174;-90
2023/01/10 00:20:27;;;;;;;1.90;1.60;;;6.20;99.90;;;;;;5026555;28;20194;-86
2023/01/10 00:22:53;;;;;;;2.13;1.93;;;6.10;99.90;;;;;;5031566;28;20243;-87
2023/01/10 00:25:20;;;;;;;1.93;1.83;;;6.20;99.90;;;;;;5034182;28;20240;-86
2023/01/10 00:28:00;;;;;;;3.40;2.03;;;6.10;99.90;;;;;;5033871;28;20189;-86
2023/01/10 00:30:27;;;;;;;3.97;2.20;;;6.10;99.90;;;;;;5028753;28;20173;-86
2023/01/10 00:32:52;;;;;;;1.80;1.70;;;6.10;99.90;;;;;;5021725;28;20206;-87
2023/01/10 00:35:18;;;;;;;2.87;2.20;;;6.00;99.90;;;;;;5038467;28;20192;-86
2023/01/10 00:37:44;;;;;;;4.97;2.20;;;6.10;99.90;;;;;;5038621;28;20181;-86
2023/01/10 00:40:11;;;;;;;4.63;1.67;;;6.10;99.90;;;;;;5027325;28;20190;-88
2023/01/10 00:45:23;;;;;;;2.97;2.00;;;6.10;99.90;;;;;;5031646;28;20208;-90
2023/01/10 00:47:49;;;;;;;1.83;1.73;;;6.00;99.90;;;;;;5025735;28;20174;-86
2023/01/10 00:50:16;;;;;;;3.50;2.03;;;6.10;99.90;;;;;;5027267;28;20208;-87
2023/01/10 00:52:41;;;;;;;2.27;1.60;;;6.10;99.90;;;;;;5026668;28;20221;-86
2023/01/10 00:55:07;;;;;;;1.90;1.80;;;6.00;99.90;;;;;;5028055;28;20276;-86
2023/01/10 00:57:33;;;;;;;2.40;2.20;;;5.90;99.90;;;;;;5026689;28;20205;-89
2023/01/10 00:59:59;;;;;;;2.40;2.13;;;5.90;99.90;;;;;;5015171;28;20190;-87
2023/01/10 01:02:24;;;;;;;2.13;1.87;;;6.00;99.90;;;;;;5035398;28;20212;-86
2023/01/10 01:04:50;;;;;;;2.10;1.90;;;6.00;99.90;;;;;;5031790;28;20676;-86
2023/01/10 01:07:16;;;;;;;2.63;1.93;;;6.00;99.90;;;;;;5034559;28;20220;-87
2023/01/10 01:12:26;;;;;;;2.13;1.93;;;6.00;99.90;;;;;;5035706;28;20216;-88
2023/01/10 01:14:52;;;;;;;3.60;2.10;;;6.10;99.90;;;;;;5043666;28;20193;-87
2023/01/10 01:17:17;;;;;;;2.40;1.93;;;6.10;99.90;;;;;;5033119;28;20195;-85
2023/01/10 01:19:43;;;;;;;2.43;2.00;;;6.10;99.90;;;;;;5028892;28;20194;-90
2023/01/10 01:22:09;;;;;;;2.20;1.90;;;6.20;99.90;;;;;;5034892;28;20209;-88
2023/01/10 01:24:35;;;;;;;2.90;1.80;;;6.20;99.90;;;;;;5038100;28;20197;-90
2023/01/10 01:27:00;;;;;;;2.70;2.03;;;6.10;99.90;;;;;;5039078;28;20218;-87
2023/01/10 01:29:26;;;;;;;2.93;2.07;;;6.10;99.90;;;;;;5034823;28;20248;-87
2023/01/10 01:31:52;;;;;;;2.37;1.80;;;6.20;99.90;;;;;;5036801;28;20197;-87
2023/01/10 01:34:17;;;;;;;3.17;1.80;;;6.10;99.90;;;;;;5036075;28;20189;-89
2023/01/10 01:36:43;;;;;;;1.67;1.57;;;6.10;99.90;;;;;;5029867;28;20177;-86
2023/01/10 01:39:08;;;;;;;2.23;1.87;;;6.10;99.90;;;;;;5034523;28;20659;-87
2023/01/10 01:44:19;;;;;;;1.30;1.30;;;6.10;99.90;;;;;;5034732;28;20192;-86
2023/01/10 01:46:50;;;;;;;3.13;1.70;;;6.20;99.90;;;;;;5022384;28;20232;-87
2023/01/10 01:49:20;;;;;;;1.80;1.70;;;6.00;99.90;;;;;;5024379;28;20189;-88
2023/01/10 01:51:50;;;;;;;2.77;1.70;;;6.00;99.90;;;;;;5038031;28;20204;-86
2023/01/10 01:54:18;;;;;;;2.00;1.80;;;6.00;99.90;;;;;;5026320;28;20248;-90
2023/01/10 01:56:53;;;;;;;2.77;1.77;;;6.10;99.90;;;;;;5023947;28;20186;-86
2023/01/10 01:59:22;;;;;;;2.40;1.80;;;6.10;99.90;;;;;;5019430;28;20185;-88
2023/01/10 02:01:51;;;;;;;2.13;1.90;;;6.10;99.90;;;;;;5029185;28;20273;-88
2023/01/10 02:04:22;;;;;;;2.33;1.50;;;6.10;99.90;;;;;;5037751;28;20185;-90
2023/01/10 02:06:50;;;;;;;2.17;1.43;;;6.00;99.90;;;;;;5032375;28;20202;-87
2023/01/10 02:09:22;;;;;;;1.50;1.40;;;6.00;99.90;;;;;;5031029;28;20186;-87
2023/01/10 02:11:48;;;;;;;1.67;1.50;;;6.10;99.90;;;;;;5031720;28;20208;-91
2023/01/10 02:14:14;;;;;;;2.10;1.67;;;6.00;99.90;;;;;;5038994;28;20184;-87
2023/01/10 02:16:40;;;;;;;2.73;1.57;;;6.00;99.90;;;;;;5024427;28;20476;-89
2023/01/10 02:19:14;;;;;;;1.70;1.60;;;6.00;99.90;;;;;;5035789;28;20185;-85
2023/01/10 02:21:52;;;;;;;1.83;1.40;;;6.00;99.90;;;;;;5027666;28;20224;-89
2023/01/10 02:24:35;;;;;;;2.27;1.47;;;5.90;99.90;;;;;;5028030;28;20191;-88
2023/01/10 02:27:30;;;;;;;2.77;1.33;;;5.80;99.90;;;;;;5038286;28;20204;-88
2023/01/10 02:30:26;;;;;;;1.90;1.70;;;5.90;99.90;;;;;;5039873;28;20212;-90
2023/01/10 02:33:06;;;;;;;1.83;1.60;;;5.80;99.90;;;;;;5028397;28;20218;-88
2023/01/10 02:35:39;;;;;;;1.67;1.40;;;5.70;99.90;;;;;;5027519;28;20196;-88
2023/01/10 02:38:27;;;;;;;2.20;1.43;;;5.70;99.90;;;;;;5030818;28;20182;-89
2023/01/10 02:41:17;;;;;;;1.90;1.37;;;5.80;99.90;;;;;;5033421;28;20231;-86
2023/01/10 02:43:52;;;;;;;1.93;1.40;;;5.80;99.90;;;;;;5022821;28;20202;-86
2023/01/10 02:46:26;;;;;;;1.53;1.47;;;5.70;99.90;;;;;;5020881;28;20267;-88
2023/01/10 02:48:53;;;;;;;1.67;1.50;;;5.70;99.90;;;;;;5030426;28;20264;-87
2023/01/10 02:51:27;;;;;;;1.73;1.37;;;5.60;99.90;;;;;;5032308;28;20201;-87
2023/01/10 02:54:09;;;;;;;1.37;1.27;;;5.60;99.90;;;;;;5013680;28;20181;-87
2023/01/10 02:56:50;;;;;;;1.63;1.53;;;5.60;99.90;;;;;;5030421;28;20193;-87
2023/01/10 02:59:32;;;;;;;1.60;1.50;;;5.60;99.90;;;;;;5036974;28;20196;-89
2023/01/10 03:02:20;;;;;;;2.33;1.50;;;5.60;99.90;;;;;;5027312;28;20274;-87
2023/01/10 03:04:49;;;;;;;2.30;1.43;;;5.60;99.90;;;;;;5025457;28;20239;-88
2023/01/10 03:07:38;;;;;;;1.70;1.60;;;5.50;99.90;;;;;;5035557;28;20239;-86
2023/01/10 03:10:09;;;;;;;2.50;1.53;;;5.60;99.90;;;;;;4991678;28;20193;-88
2023/01/10 03:12:47;;;;;;;2.97;1.80;;;5.50;99.90;;;;;;5018950;28;20359;-87
2023/01/10 03:15:17;;;;;;;1.70;1.50;;;5.40;99.90;;;;;;5030187;28;20177;-86
2023/01/10 03:17:48;;;;;;;3.30;1.93;;;5.40;99.90;;;;;;5027685;28;20196;-89
2023/01/10 03:20:16;;;;;;;2.67;1.90;;;5.40;99.90;;;;;;5027277;28;20197;-89
2023/01/10 03:22:43;;;;;;;3.87;1.83;;;5.30;99.90;;;;;;5030729;28;20193;-89
2023/01/10 03:25:13;;;;;;;4.10;2.13;;;5.50;99.90;;;;;;5029532;28;20239;-89
2023/01/10 03:28:01;;;;;;;4.57;2.00;;;5.60;99.90;;;;;;5031143;28;20221;-87
2023/01/10 03:30:51;;;;;;;5.80;2.50;;;5.70;99.90;;;;;;5034428;28;20187;-87
2023/01/10 03:33:23;;;;;;;4.60;2.20;;;5.60;99.90;;;;;;5029630;28;20202;-87
2023/01/10 03:36:26;;;;;;;5.00;2.10;;;5.50;99.90;;;;;;5031200;28;20190;-87
2023/01/10 03:39:22;;;;;;;4.17;2.30;;;5.50;99.90;;;;;;5039060;28;20193;-87
2023/01/10 03:42:07;;;;;;;6.30;2.50;;;5.50;99.90;;;;;;5025749;28;20231;-87
2023/01/10 03:44:59;;;;;;;6.03;2.37;;;5.50;99.90;;;;;;5028997;28;20242;-88
2023/01/10 03:47:31;;;;;;;10.53;3.03;;;5.50;99.90;;;;;;5017763;28;20722;-87
2023/01/10 03:50:05;;;;;;;5.37;2.97;;;5.50;99.90;;;;;;5036159;28;20402;-87
2023/01/10 03:52:33;;;;;;;6.27;3.10;;;5.60;99.90;;;;;;5027511;28;20208;-89
2023/01/10 03:55:01;;;;;;;5.00;2.47;;;5.70;99.90;;;;;;5042820;28;20173;-88
2023/01/10 03:57:27;;;;;;;9.10;3.30;;;5.60;99.90;;;;;;5029872;28;20811;-87
2023/01/10 03:59:57;;;;;;;8.60;3.00;;;5.60;99.90;;;;;;5040124;28;20173;-86
2023/01/10 04:02:28;;;;;;;6.30;2.90;;;5.60;99.90;;;;;;5032165;28;20295;-87
2023/01/10 04:04:54;;;;;;;8.60;3.00;;;5.60;99.90;;;;;;5029279;28;20186;-87
2023/01/10 04:07:19;;;;;;;10.77;3.70;;;5.60;99.90;;;;;;5030121;28;20216;-87
2023/01/10 04:09:45;;;;;;;13.57;3.30;;;5.60;99.90;;;;;;5023031;28;20186;-87
2023/01/10 04:12:11;;;;;;;8.80;2.60;;;5.60;99.90;;;;;;5009746;28;20288;-85
2023/01/10 04:14:36;;;;;;;7.97;3.30;;;5.60;99.90;;;;;;5033055;28;20276;-87
2023/01/10 04:17:03;;;;;;;8.23;3.43;;;5.50;99.90;;;;;;5036019;28;20200;-88
2023/01/10 04:19:29;;;;;;;10.53;3.23;;;5.50;99.90;;;;;;5038107;28;20207;-87
2023/01/10 04:21:54;;;;;;;7.83;3.07;;;5.50;99.90;;;;;;5040487;28;20201;-87
2023/01/10 04:24:20;;;;;;;7.73;3.50;;;5.50;99.90;;;;;;5031612;28;20186;-87
2023/01/10 04:26:46;;;;;;;7.47;3.07;;;5.50;99.90;;;;;;5027841;28;20209;-86
2023/01/10 04:29:11;;;;;;;12.53;3.27;;;5.60;99.90;;;;;;5032126;28;20221;-85
2023/01/10 04:31:38;;;;;;;8.03;3.30;;;5.70;99.90;;;;;;5025486;28;20230;-87
2023/01/10 04:34:08;;;;;;;10.53;4.30;;;5.70;99.90;;;;;;5039411;28;20182;-87
2023/01/10 04:36:35;;;;;;;6.30;2.90;;;5.80;99.90;;;;;;5038473;28;20276;-88
2023/01/10 04:39:01;;;;;;;4.93;2.60;;;5.60;99.90;;;;;;5037572;28;20193;-86
2023/01/10 04:41:26;;;;;;;10.83;3.20;;;5.60;99.90;;;;;;5027170;28;20229;-86
2023/01/10 04:43:52;;;;;;;10.80;3.47;;;5.60;99.90;;;;;;5039107;28;20197;-89
2023/01/10 04:46:18;;;;;;;7.33;2.70;;;5.60;99.90;;;;;;5026475;28;20243;-88
2023/01/10 04:48:43;;;;;;;7.43;3.00;;;5.70;99.90;;;;;;5040298;28;20683;-88
2023/01/10 04:51:09;;;;;;;11.30;3.53;;;5.70;99.90;;;;;;5033322;28;20181;-89
2023/01/10 04:53:35;;;;;;;7.80;3.13;;;5.80;99.90;;;;;;5039913;28;20592;-90
2023/01/10 04:56:05;;;;;;;6.53;3.33;;;5.60;99.90;;;;;;5022023;28;20205;-91
2023/01/10 04:58:35;;;;;;;10.17;3.37;;;5.70;99.90;;;;;;5040351;28;20182;-87
2023/01/10 05:01:13;;;;;;;7.80;2.97;;;5.70;99.90;;;;;;5035776;28;20178;-90
2023/01/10 05:03:39;;;;;;;5.90;3.00;;;5.80;99.90;;;;;;5031862;28;20187;-88
2023/01/10 05:06:06;;;;;;;7.43;3.50;;;5.70;99.90;;;;;;5045342;28;20211;-86
2023/01/10 05:08:32;;;;;;;6.63;3.23;;;5.70;99.90;;;;;;5031304;28;20193;-87
2023/01/10 05:10:57;;;;;;;9.03;3.50;;;5.80;99.90;;;;;;5027381;28;20198;-86
2023/01/10 05:13:24;;;;;;;8.10;3.00;;;5.70;99.90;;;;;;5032567;28;20234;-86
2023/01/10 05:15:54;;;;;;;5.50;3.10;;;5.80;99.90;;;;;;5037521;28;20201;-85
2023/01/10 05:18:19;;;;;;;7.43;3.00;;;5.80;99.90;;;;;;5039197;28;20177;-84
2023/01/10 05:20:45;;;;;;;9.60;3.10;;;5.70;99.90;;;;;;5021854;28;20227;-85
2023/01/10 05:23:11;;;;;;;12.47;3.40;;;5.70;99.90;;;;;;5031192;28;20213;-89
2023/01/10 05:25:36;;;;;;;6.00;3.33;;;5.70;99.90;;;;;;5034211;28;20189;-88
2023/01/10 05:28:02;;;;;;;7.63;3.27;;;5.70;99.90;;;;;;5029181;28;20170;-87
2023/01/10 05:30:28;;;;;;;7.73;3.00;;;5.70;99.90;;;;;;5021939;28;20182;-88
2023/01/10 05:32:53;;;;;;;8.33;3.27;;;5.70;99.90;;;;;;5028471;28;20281;-87
2023/01/10 05:35:19;;;;;;;5.77;2.87;;;5.70;99.90;;;;;;5039357;28;20191;-88
2023/01/10 05:37:45;;;;;;;14.00;7.57;;;5.80;99.90;;;;;;5020979;28;20217;-87
2023/01/10 05:40:11;;;;;;;11.00;3.27;;;5.80;99.90;;;;;;5033436;28;20245;-88
2023/01/10 05:42:36;;;;;;;8.17;4.37;;;5.70;99.90;;;;;;5024907;28;20245;-87
2023/01/10 05:45:03;;;;;;;10.23;3.77;;;5.60;99.90;;;;;;5029192;28;20185;-87
2023/01/10 05:47:29;;;;;;;8.00;3.80;;;5.70;99.90;;;;;;5026213;28;20842;-86
2023/01/10 05:49:55;;;;;;;16.47;3.93;;;5.70;99.90;;;;;;5028457;28;20186;-87
2023/01/10 05:52:20;;;;;;;13.00;3.60;;;5.70;99.90;;;;;;5033407;28;20205;-89
2023/01/10 05:54:46;;;;;;;8.70;3.27;;;5.70;99.90;;;;;;5036693;28;20188;-89
2023/01/10 05:57:12;;;;;;;12.40;3.20;;;5.60;99.90;;;;;;5025575;28;20189;-90
2023/01/10 05:59:37;;;;;;;10.67;3.83;;;5.50;99.90;;;;;;5029901;28;20290;-89
2023/01/10 06:02:03;;;;;;;7.53;3.73;;;5.60;99.90;;;;;;5014884;28;20261;-89
2023/01/10 06:04:28;;;;;;;11.97;3.67;;;5.70;99.90;;;;;;5034989;28;20193;-88
2023/01/10 06:06:54;;;;;;;8.20;3.20;;;5.60;99.90;;;;;;5033076;28;20279;-89
2023/01/10 06:09:20;;;;;;;7.97;3.30;;;5.70;99.90;;;;;;5023579;28;20212;-87
2023/01/10 06:11:45;;;;;;;13.17;3.27;;;5.70;99.90;;;;;;5024500;28;20202;-88
2023/01/10 06:14:11;;;;;;;12.27;3.63;;;5.60;99.90;;;;;;5042700;28;20596;-88
2023/01/10 06:16:37;;;;;;;13.20;3.67;;;5.60;99.90;;;;;;5034735;28;20184;-88
2023/01/10 06:19:03;;;;;;;12.53;3.50;;;5.60;99.90;;;;;;5033926;28;20196;-87
2023/01/10 06:21:28;;;;;;;8.90;3.10;;;5.50;99.90;;;;;;5029670;28;20216;-88
2023/01/10 06:23:54;;;;;;;7.53;3.40;;;5.70;99.90;;;;;;5028321;28;20276;-88
2023/01/10 06:26:19;;;;;;;5.50;2.60;;;5.80;99.90;;;;;;5025535;28;20220;-87
2023/01/10 06:28:45;;;;;;;11.83;3.63;;;5.80;99.90;;;;;;5012040;28;20204;-88
2023/01/10 06:31:13;;;;;;;10.90;4.03;;;5.80;99.90;;;;;;5027510;28;20276;-90
2023/01/10 06:33:40;;;;;;;8.97;3.30;;;5.60;99.90;;;;;;5027814;28;20232;-88
2023/01/10 06:36:06;;;;;;;10.43;3.63;;;5.50;99.90;;;;;;5030506;28;20189;-87
2023/01/10 06:38:31;;;;;;;11.83;3.43;;;5.60;99.90;;;;;;5007429;28;20189;-88
2023/01/10 06:40:57;;;;;;;9.50;3.57;;;5.50;99.90;;;;;;5019835;28;20680;-87
2023/01/10 06:43:22;;;;;;;8.97;3.60;;;5.50;99.90;;;;;;5033406;28;20285;-87
2023/01/10 06:45:48;;;;;;;10.73;3.93;;;5.50;99.90;;;;;;5020032;28;20221;-87
2023/01/10 06:48:14;;;;;;;9.10;4.10;;;5.60;99.90;;;;;;5026835;28;20189;-87
2023/01/10 06:50:40;;;;;;;9.73;3.40;;;5.70;99.90;;;;;;5027656;28;20200;-89
2023/01/10 06:53:05;;;;;;;7.57;3.37;;;5.70;99.90;;;;;;5028823;28;20779;-90
2023/01/10 06:55:31;;;;;;;11.63;4.03;;;5.60;99.90;;;;;;5024043;28;20182;-87
2023/01/10 06:57:59;;;;;;;10.93;3.93;;;5.50;99.90;;;;;;5029069;28;20619;-89
2023/01/10 07:00:27;;;;;;;9.37;3.80;;;5.40;99.90;;;;;;5024649;28;20181;-88
2023/01/10 07:02:55;;;;;;;12.73;4.03;;;5.30;99.90;;;;;;5030703;28;20216;-88
2023/01/10 07:05:21;;;;;;;9.37;4.10;;;5.30;99.90;;;;;;5023825;28;20189;-87
2023/01/10 07:07:46;;;;;;;7.60;4.07;;;5.20;99.90;;;;;;5028532;28;20212;-90
2023/01/10 07:10:12;;;;;;;6.17;3.23;;;5.20;99.90;;;;;;5029952;28;20177;-87
2023/01/10 07:12:37;;;;;;;10.27;3.53;;;5.20;99.90;;;;;;5035772;28;20232;-88
2023/01/10 07:15:04;;;;;;;12.17;3.90;;;5.20;99.90;;;;;;5024647;28;20196;-87
2023/01/10 07:17:30;;;;;;;9.27;3.90;;;5.20;99.90;;;;;;5024128;28;20194;-88
2023/01/10 07:19:56;;;;;;;8.90;3.97;;;5.20;99.90;;;;;;5018895;28;20260;-89
2023/01/10 07:22:21;;;;;;;7.30;3.43;;;5.20;99.90;;;;;;5020058;28;20217;-89
2023/01/10 07:24:47;;;;;;;10.50;3.70;;;5.30;99.90;;;;;;5025290;28;20197;-90
2023/01/10 07:27:13;;;;;;;10.10;4.07;;;5.40;99.90;;;;;;5031961;28;20209;-88
2023/01/10 07:29:39;;;;;;;8.60;3.57;;;5.40;99.90;;;;;;5028369;28;20204;-87
2023/01/10 07:32:05;;;;;;;10.57;3.73;;;5.50;99.90;;;;;;5029895;28;20209;-90
2023/01/10 07:34:31;;;;;;;9.10;3.43;;;5.40;99.90;;;;;;5021468;28;20185;-87
2023/01/10 07:36:56;;;;;;;8.87;3.87;;;5.40;99.90;;;;;;5022135;28;20182;-89
2023/01/10 07:39:22;;;;;;;9.40;4.00;;;5.40;99.90;;;;;;5019463;28;20194;-88
2023/01/10 07:41:49;;;;;;;9.10;4.47;;;5.50;99.90;;;;;;5026212;28;20773;-88
2023/01/10 07:44:15;;;;;;;7.67;4.17;;;5.40;99.90;;;;;;5020152;28;20185;-90
2023/01/10 07:46:40;;;;;;;12.00;3.97;;;5.40;99.90;;;;;;5025249;28;20643;-90
2023/01/10 07:49:06;;;;;;;8.93;3.70;;;5.50;99.90;;;;;;5033641;28;20185;-89
2023/01/10 07:51:32;;;;;;;8.03;4.60;;;5.40;99.90;;;;;;5021708;28;20220;-89
2023/01/10 07:53:57;;;;;;;9.13;3.93;;;5.50;99.90;;;;;;5017172;28;20185;-89
2023/01/10 07:56:23;;;;;;;8.87;3.93;;;5.40;99.90;;;;;;5026867;28;20210;-88
2023/01/10 07:58:49;;;;;;;5.77;3.70;;;5.40;99.90;;;;;;5037940;28;20204;-92
2023/01/10 08:01:14;;;;;;;7.97;3.63;;;5.50;99.90;;;;;;5041579;28;20190;-92
2023/01/10 08:03:40;;;;;;;9.17;4.37;;;5.50;99.90;;;;;;5038101;28;20233;-91
2023/01/10 08:06:11;;;;;;;10.63;3.83;;;5.50;99.90;;;;;;5037842;28;20327;-91
2023/01/10 08:08:37;;;;;;;7.93;3.63;;;5.60;99.90;;;;;;5022413;28;20197;-88
2023/01/10 08:11:04;;;;;;;11.40;3.53;;;5.70;99.90;;;;;;5035395;28;20263;-89
2023/01/10 08:13:30;;;;;;;10.33;3.87;;;5.60;99.90;;;;;;5031082;28;20202;-89
2023/01/10 08:15:56;;;;;;;16.20;6.73;;;5.60;99.90;;;;;;5033876;28;20193;-88
2023/01/10 08:18:23;;;;;;;11.53;3.87;;;5.80;99.90;;;;;;5018730;28;20193;-88
2023/01/10 08:20:49;;;;;;;6.80;3.80;;;5.70;99.90;;;;;;5029541;28;20203;-88
2023/01/10 08:23:16;;;;;;;7.37;3.00;;;5.80;99.90;;;;;;5028755;28;20208;-89
2023/01/10 08:25:42;;;;;;;10.70;3.83;;;5.80;99.90;;;;;;5019313;28;20190;-90
2023/01/10 08:28:07;;;;;;;9.43;4.10;;;5.80;99.90;;;;;;5015966;28;20181;-88
2023/01/10 08:30:33;;;;;;;8.23;4.03;;;5.70;99.90;;;;;;5034095;28;20606;-89
2023/01/10 08:33:02;;;;;;;10.60;4.10;;;5.60;99.90;;;;;;5019012;28;20278;-89
2023/01/10 08:35:28;;;;;;;11.13;3.80;;;5.70;99.90;;;;;;5011415;28;20228;-88
2023/01/10 08:37:58;;;;;;;9.90;3.67;;;5.70;99.90;;;;;;5034412;28;20186;-90
2023/01/10 08:40:24;;;;;;;9.80;3.43;;;5.80;99.90;;;;;;5017252;28;20280;-88
2023/01/10 08:42:56;;;;;;;7.60;3.57;;;5.80;99.90;;;;;;5028877;28;20228;-87
2023/01/10 08:45:22;;;;;;;8.67;3.43;;;5.80;99.90;;;;;;5017359;28;20210;-89
2023/01/10 08:47:48;;;;;;;11.37;4.27;;;5.90;99.90;;;;;;5005633;28;20225;-89
2023/01/10 08:50:13;;;;;;;9.07;3.47;;;5.90;99.90;;;;;;5035514;28;20258;-89
2023/01/10 08:52:39;;;;;;;10.13;3.33;;;6.00;99.90;;;;;;5027973;28;20239;-90
2023/01/10 08:55:05;;;;;;;12.73;3.60;;;6.00;99.90;;;;;;5029614;28;20185;-89
2023/01/10 08:57:31;;;;;;;9.60;4.23;;;6.00;99.90;;;;;;5032832;28;20384;-91
2023/01/10 08:59:56;;;;;;;9.47;4.20;;;6.00;99.90;;;;;;5028188;28;20195;-88
2023/01/10 09:02:22;;;;;;;8.07;4.00;;;5.90;99.90;;;;;;5022521;28;20209;-88
2023/01/10 09:04:48;;;;;;;7.90;4.23;;;6.00;99.90;;;;;;5032099;28;20177;-88
2023/01/10 09:07:13;;;;;;;8.97;4.07;;;6.00;99.90;;;;;;5038161;28;20701;-89
2023/01/10 09:09:39;;;;;;;8.57;3.90;;;6.10;99.90;;;;;;5024671;28;20278;-90
2023/01/10 09:12:53;;;;;;;9.07;3.83;;;6.10;99.90;;;;;;5023278;28;20203;-88
2023/01/10 09:14:50;;;;;;;8.80;3.70;;;6.00;99.90;;;;;;5025525;28;20182;-87
2023/01/10 09:17:16;;;;;;;9.83;3.50;;;6.10;99.90;;;;;;5021522;28;20207;-88
2023/01/10 09:19:42;;;;;;;8.07;3.70;;;6.00;99.90;;;;;;5016251;28;20190;-89
2023/01/10 09:22:07;;;;;;;6.47;3.93;;;6.10;99.90;;;;;;5014317;28;20270;-88
2023/01/10 09:24:34;;;;;;;5.50;2.87;;;6.10;99.90;;;;;;5019771;28;20181;-88
2023/01/10 09:27:00;;;;;;;5.90;3.50;;;6.10;99.90;;;;;;5031683;28;20201;-90
2023/01/10 09:29:26;;;;;;;8.10;3.40;;;6.00;99.90;;;;;;5029118;28;20200;-89
2023/01/10 09:31:51;;;;;;;8.37;3.60;;;6.10;99.90;;;;;;5026873;28;20239;-89
2023/01/10 09:34:17;;;;;;;5.13;2.90;;;6.10;99.90;;;;;;5031040;28;20194;-91
2023/01/10 09:36:43;;;;;;;7.40;2.90;;;6.10;99.90;;;;;;5043584;28;20174;-92
2023/01/10 09:39:10;;;;;;;8.40;3.23;;;6.10;99.90;;;;;;5036692;28;20222;-91
2023/01/10 09:41:50;;;;;;;10.07;3.00;;;6.20;99.90;;;;;;5027790;28;20233;-93
2023/01/10 09:44:24;;;;;;;5.93;2.93;;;6.20;99.90;;;;;;5038814;28;20177;-91
2023/01/10 09:47:19;;;;;;;10.83;3.77;;;6.30;99.90;;;;;;5033434;28;20256;-89
2023/01/10 09:50:17;;;;;;;9.03;2.93;;;6.20;99.90;;;;;;5027926;28;20672;-89
2023/01/10 09:52:49;;;;;;;7.43;3.17;;;6.20;99.90;;;;;;5028960;28;20212;-88
2023/01/10 09:55:34;;;;;;;7.07;3.07;;;6.20;99.90;;;;;;5029074;28;20173;-89
2023/01/10 09:58:05;;;;;;;7.10;2.87;;;6.20;99.90;;;;;;4995752;28;20269;-89
2023/01/10 10:00:45;;;;;;;7.77;2.90;;;6.20;99.90;;;;;;5019739;28;20795;-88
2023/01/10 10:03:31;;;;;;;5.40;2.80;;;6.00;99.90;;;;;;5033471;28;20559;-88
2023/01/10 10:05:58;;;;;;;6.17;2.93;;;6.00;99.90;;;;;;5030743;28;20699;-88
2023/01/10 10:08:23;;;;;;;7.10;3.23;;;6.10;99.90;;;;;;5040388;28;20192;-91
2023/01/10 10:10:58;;;;;;;8.60;3.03;;;6.10;99.90;;;;;;5041804;28;20277;-90
2023/01/10 10:13:58;;;;;;;5.37;2.97;;;6.20;99.90;;;;;;5025946;28;20205;-92
2023/01/10 10:16:43;;;;;;;5.30;2.97;;;6.20;99.90;;;;;;5001985;28;20207;-89
2023/01/10 10:19:21;;;;;;;5.37;2.97;;;6.30;99.90;;;;;;5021497;28;20188;-89
2023/01/10 10:22:39;;;;;;;6.63;3.20;;;6.30;99.90;;;;;;5022094;28;20209;-89
2023/01/10 10:25:33;;;;;;;7.40;3.40;;;6.50;99.90;;;;;;5006687;28;20230;-89
2023/01/10 10:27:58;;;;;;;6.57;3.33;;;6.50;99.90;;;;;;5019783;28;20245;-91
2023/01/10 10:30:41;;;;;;;6.77;3.00;;;6.50;99.90;;;;;;5026806;28;20185;-87
2023/01/10 10:33:22;;;;;;;6.17;3.13;;;6.60;99.90;;;;;;5021860;28;20205;-90
2023/01/10 10:35:57;;;;;;;6.70;2.97;;;6.40;99.90;;;;;;5019782;28;20174;-89
2023/01/10 10:38:31;;;;;;;6.57;3.40;;;6.50;99.90;;;;;;5013873;28;20194;-89
2023/01/10 10:40:58;;;;;;;10.30;3.27;;;6.60;99.90;;;;;;5017777;28;20189;-88
2023/01/10 10:43:33;;;;;;;7.70;3.33;;;6.70;99.90;;;;;;5026439;28;20248;-89
2023/01/10 10:46:08;;;;;;;6.70;2.97;;;6.70;99.90;;;;;;5016526;28;20224;-88
2023/01/10 10:48:56;;;;;;;4.63;2.90;;;6.70;99.90;;;;;;5020755;28;20241;-89
2023/01/10 10:51:44;;;;;;;6.57;3.10;;;6.60;99.90;;;;;;5024631;28;20725;-89
2023/01/10 10:54:12;;;;;;;5.37;2.60;;;6.40;99.90;;;;;;5029061;28;20176;-92
2023/01/10 10:56:38;;;;;;;6.60;2.93;;;6.60;99.90;;;;;;5044272;28;20728;-90
2023/01/10 10:59:05;;;;;;;6.00;2.77;;;6.60;99.90;;;;;;5040378;28;20202;-92
2023/01/10 11:01:30;;;;;;;8.23;3.07;;;6.70;99.90;;;;;;5036966;28;20256;-90
2023/01/10 11:04:10;;;;;;;6.43;3.30;;;6.60;99.90;;;;;;5032791;28;20197;-89
2023/01/10 11:06:39;;;;;;;3.83;2.67;;;6.60;99.90;;;;;;5032722;28;20230;-89
2023/01/10 11:09:06;;;;;;;6.70;3.33;;;6.60;99.90;;;;;;5018335;28;20190;-88
2023/01/10 11:11:36;;;;;;;7.90;3.30;;;6.70;99.90;;;;;;5023865;28;20288;-87
2023/01/10 11:14:05;;;;;;;7.53;2.93;;;6.60;99.90;;;;;;5029933;28;20177;-87
2023/01/10 11:16:32;;;;;;;9.40;3.70;;;6.80;99.90;;;;;;5012709;28;20185;-87
2023/01/10 11:19:19;;;;;;;9.23;3.80;;;7.00;99.60;;;;;;5026992;28;20317;-88
2023/01/10 11:22:02;;;;;;;8.33;3.23;;;7.10;97.40;;;;;;5022312;28;20270;-89
2023/01/10 11:24:38;;;;;;;8.13;3.13;;;7.20;97.70;;;;;;5020589;28;20247;-89
2023/01/10 11:27:15;;;;;;;9.70;2.97;;;7.30;97.80;;;;;;5032993;28;20212;-89
2023/01/10 11:29:52;;;;;;;6.17;3.33;;;7.50;96.30;;;;;;5025228;28;20673;-88
2023/01/10 11:32:29;;;;;;;7.10;3.00;;;7.90;95.30;;;;;;5020726;28;20212;-87
2023/01/10 11:35:06;;;;;;;5.67;3.27;;;8.30;88.30;;;;;;5025678;28;20181;-89
2023/01/10 11:37:34;;;;;;;5.70;3.00;;;8.10;89.60;;;;;;5021966;28;20195;-89
2023/01/10 11:40:18;;;;;;;6.60;2.80;;;8.10;88.40;;;;;;5016506;28;20780;-88
2023/01/10 11:42:45;;;;;;;7.50;3.27;;;8.10;88.50;;;;;;5026546;28;20220;-88
2023/01/10 11:45:22;;;;;;;5.90;2.70;;;7.90;91.20;;;;;;5023019;28;20193;-88
2023/01/10 11:47:56;;;;;;;5.17;3.10;;;7.80;91.20;;;;;;5028918;28;20200;-88
2023/01/10 11:50:32;;;;;;;6.53;3.00;;;7.90;90.70;;;;;;5027601;28;20281;-90
2023/01/10 11:52:57;;;;;;;6.53;3.03;;;7.60;92.50;;;;;;5008003;28;20217;-89
2023/01/10 11:55:26;;;;;;;8.90;3.50;;;7.50;92.50;;;;;;5019906;28;20277;-90
2023/01/10 11:58:09;;;;;;;5.33;2.80;;;7.40;92.20;;;;;;5019884;28;20223;-89
2023/01/10 12:01:01;;;;;;;6.90;3.40;;;7.10;94.40;;;;;;5015599;28;20279;-88
2023/01/10 12:03:35;;;;;;;6.57;3.50;;;7.10;94.80;;;;;;5013071;28;20237;-88
2023/01/10 12:06:06;;;;;;;8.23;3.33;;;7.20;94.50;;;;;;5013535;28;20223;-89
2023/01/10 12:08:37;;;;;;;5.73;2.90;;;7.10;95.90;;;;;;5017690;28;20300;-89
2023/01/10 12:11:26;;;;;;;7.63;4.10;;;7.20;94.40;;;;;;5018052;28;20207;-88
2023/01/10 12:16:33;;;;;;;5.43;2.87;;;7.20;94.50;;;;;;5452998;23;20231;-86
2023/01/10 12:19:10;;;;;;;9.47;3.70;;;7.30;92.60;;;;;;5048917;28;20749;-87
2023/01/10 12:21:41;;;;;;;6.47;2.97;;;7.60;91.70;;;;;;5045878;28;20207;-88
2023/01/10 12:24:13;;;;;;;5.73;2.50;;;7.60;90.20;;;;;;5048907;28;20184;-88
2023/01/10 12:26:41;;;;;;;5.80;2.90;;;8.00;86.70;;;;;;5046123;28;20212;-90
2023/01/10 12:29:21;;;;;;;8.67;3.10;;;8.10;88.90;;;;;;5045517;28;20222;-87
2023/01/10 12:31:50;;;;;;;6.57;3.00;;;8.10;84.80;;;;;;5045027;28;20188;-87
2023/01/10 12:34:22;;;;;;;7.33;3.07;;;8.50;82.10;;;;;;5028694;28;20192;-88
2023/01/10 12:37:20;;;;;;;10.10;3.23;;;8.80;78.40;;;;;;5024906;28;20216;-87
2023/01/10 12:39:52;;;;;;;9.53;3.17;;;9.00;78.00;;;;;;5044825;28;20649;-89
2023/01/10 12:45:37;;;;;;;10.37;3.00;;;9.30;73.70;;;;;;5008943;28;20320;-86
2023/01/10 12:48:14;;;;;;;7.30;2.77;;;9.20;73.10;;;;;;5024800;28;20199;-88
2023/01/10 12:51:03;;;;;;;8.20;3.10;;;9.30;76.10;;;;;;5042624;28;20195;-89
2023/01/10 12:53:38;;;;;;;5.40;2.77;;;9.50;72.20;;;;;;5044757;28;20302;-88
2023/01/10 12:56:08;;;;;;;7.83;3.30;;;9.10;74.90;;;;;;5046598;28;20267;-88
2023/01/10 12:58:42;;;;;;;5.20;2.83;;;8.80;72.00;;;;;;5044164;28;20199;-88
2023/01/10 13:01:30;;;;;;;4.03;2.50;;;8.80;74.40;;;;;;5045392;28;20255;-88
2023/01/10 13:04:04;;;;;;;6.80;3.00;;;8.60;72.10;;;;;;5046340;28;20215;-88
2023/01/10 13:06:33;;;;;;;7.50;3.10;;;8.60;73.20;;;;;;5020088;28;20216;-88
2023/01/10 13:09:12;;;;;;;4.67;2.60;;;8.80;73.20;;;;;;5019888;28;20200;-88
2023/01/10 13:12:07;;;;;;;8.17;3.00;;;8.70;74.70;;;;;;5041925;28;20189;-88
2023/01/10 13:14:43;;;;;;;7.67;3.37;;;8.70;74.00;;;;;;5023168;28;20224;-89
2023/01/10 13:17:15;;;;;;;4.57;2.40;;;8.40;73.50;;;;;;5021672;28;20211;-87
2023/01/10 13:19:41;;;;;;;6.27;2.63;;;8.30;73.90;;;;;;5019496;28;20410;-88
2023/01/10 13:22:22;;;;;;;5.37;2.30;;;8.20;74.40;;;;;;5020924;28;20575;-87
2023/01/10 13:25:01;;;;;;;6.33;2.80;;;8.20;74.40;;;;;;5041645;28;20795;-90
2023/01/10 13:27:33;;;;;;;5.60;2.60;;;8.20;73.20;;;;;;5048997;28;20246;-89
2023/01/10 13:30:00;;;;;;;3.10;2.30;;;8.30;71.90;;;;;;5027393;28;20235;-89